Rucker, Missouri
Current Conditions -  °F | °C
As of 8:15 AM on Friday 19 Dec 2014 (Local Time) from KVER Reporting Station
Haze Haze  
Wind Chill: 33°   Ceiling: 600
Heat Index: 33°   Visibility: 3mi
Dew Point: 32°   Wind: 0mph
Humidity: 98%   Direction: NA
Pressure: 30.28"   Gusts: NA
Location:  39.2946°N, 92.3427°W
Report Text: KVER 191415Z AUTO 00000KT 3SM BR OVC006 00/00 A3028 RMK AO2 T00030000
Loading
Personal Weather Stations






























Interactive Weather Map New forecast layout! Learn more

10-Day Weather Forecast

Advertisements
Track Severe Weather on mobile